PWSweather.com
Personal Weather Stations
Station Observations
N3SME
Betz Creek, Wilmington Island, Savannah, GA 31410

Betz Creek, Wilmington IslandSavannah, GA 31410

Lat: 32.023021, Lon: -80.959452

Elevation: 15

Station Type: Ambient

Latest ConditionsUpdated 3:35:29 PM EST Thursday, Nov 20, 2014
Currently Today's Max Today's Min Today's Average
Temperature 63.6°F17.6°C 67.4°F19.7°C 31.7°F-0.2°C 44.7°F7.1°C
Dew Point 31.0°F-0.6°C 35.1°F1.7°C 24.3°F-4.3°C 27.7°F-2.4°C
Winds 5.1 mph SW8.2 kmh SW 10.5 mph WNW16.9 kmh WNW - 2.3 mph 3.7 kmh
Wind Gusts 15.7 mph25.3 kmh 19.2 mph30.9 kmh - -
Humidity 32% 90% 29% 58%
Pressure 30.11 in1019.6 mb 30.26 in1024.7 mb 30.10 in1019.3 mb -
Hour Temp Dew Point Humidity Winds Wind Gusts Pressure Precip Precip Rate Daily Precip Total
03:35 PM 63.6°F17.6°C 31.0°F-0.6°C 32% 5.1 mph SW8.2 kmh SW 15.7 mph25.3 kmh 30.11 in1019.6 mb 0.00 in0.0 mm 0.00 in/hr0.0 mm/hr 0.00 in0.0 mm
03:20 PM 63.9°F17.7°C 30.4°F-0.9°C 31% 3.6 mph WSW5.8 kmh WSW 19.2 mph30.9 kmh 30.10 in1019.3 mb 0.00 in0.0 mm 0.00 in/hr0.0 mm/hr 0.00 in0.0 mm
03:05 PM 65.2°F18.4°C 31.5°F-0.3°C 31% 3.6 mph WSW5.8 kmh WSW 14.1 mph22.7 kmh 30.11 in1019.6 mb 0.00 in0.0 mm 0.00 in/hr0.0 mm/hr 0.00 in0.0 mm
02:50 PM 67.4°F19.7°C 35.1°F1.7°C 33% 5.1 mph SW8.2 kmh SW 10.5 mph16.9 kmh 30.11 in1019.6 mb 0.00 in0.0 mm 0.00 in/hr0.0 mm/hr 0.00 in0.0 mm
02:35 PM 66.5°F19.2°C 33.5°F0.8°C 32% 3.6 mph SW5.8 kmh SW 12.3 mph19.8 kmh 30.11 in1019.6 mb 0.00 in0.0 mm 0.00 in/hr0.0 mm/hr 0.00 in0.0 mm
02:20 PM 66.3°F19.1°C 33.3°F0.7°C 32% 6.9 mph SW11.1 kmh SW 14.1 mph22.7 kmh 30.12 in1020.0 mb 0.00 in0.0 mm 0.00 in/hr0.0 mm/hr 0.00 in0.0 mm
02:05 PM 66.1°F18.9°C 30.3°F-0.9°C 29% 6.9 mph W11.1 kmh W 15.7 mph25.3 kmh 30.12 in1020.0 mb 0.00 in0.0 mm 0.00 in/hr0.0 mm/hr 0.00 in0.0 mm
01:50 PM 65.6°F18.7°C 29.9°F-1.2°C 29% 6.9 mph WSW11.1 kmh WSW 15.7 mph25.3 kmh 30.13 in1020.3 mb 0.00 in0.0 mm 0.00 in/hr0.0 mm/hr 0.00 in0.0 mm
01:35 PM 64.1°F17.8°C 29.6°F-1.3°C 30% 3.6 mph SW5.8 kmh SW 17.4 mph28.0 kmh 30.13 in1020.3 mb 0.00 in0.0 mm 0.00 in/hr0.0 mm/hr 0.00 in0.0 mm
01:20 PM 62.9°F17.2°C 29.5°F-1.4°C 31% 1.8 mph WSW2.9 kmh WSW 14.1 mph22.7 kmh 30.14 in1020.7 mb 0.00 in0.0 mm 0.00 in/hr0.0 mm/hr 0.00 in0.0 mm
01:05 PM 62.1°F16.7°C 27.9°F-2.3°C 30% 6.9 mph WSW11.1 kmh WSW 17.4 mph28.0 kmh 30.15 in1021.0 mb 0.00 in0.0 mm 0.00 in/hr0.0 mm/hr 0.00 in0.0 mm
12:50 PM 61.6°F16.4°C 28.4°F-2.0°C 31% Calm Calm 14.1 mph22.7 kmh 30.16 in1021.3 mb 0.00 in0.0 mm 0.00 in/hr0.0 mm/hr 0.00 in0.0 mm
12:35 PM 60.7°F15.9°C 25.8°F-3.4°C 29% 6.9 mph WSW11.1 kmh WSW 15.7 mph25.3 kmh 30.18 in1022.0 mb 0.00 in0.0 mm 0.00 in/hr0.0 mm/hr 0.00 in0.0 mm
12:20 PM 60.0°F15.6°C 26.1°F-3.3°C 30% 3.6 mph SW5.8 kmh SW 15.7 mph25.3 kmh 30.18 in1022.0 mb 0.00 in0.0 mm 0.00 in/hr0.0 mm/hr 0.00 in0.0 mm
12:05 PM 59.3°F15.2°C 25.5°F-3.6°C 30% 1.8 mph WSW2.9 kmh WSW 15.7 mph25.3 kmh 30.20 in1022.7 mb 0.00 in0.0 mm 0.00 in/hr0.0 mm/hr 0.00 in0.0 mm
11:50 AM 58.5°F14.7°C 25.8°F-3.4°C 31% 5.1 mph WNW8.2 kmh WNW 14.1 mph22.7 kmh 30.21 in1023.0 mb 0.00 in0.0 mm 0.00 in/hr0.0 mm/hr 0.00 in0.0 mm
11:35 AM 57.8°F14.3°C 26.1°F-3.3°C 32% 5.1 mph W8.2 kmh W 14.1 mph22.7 kmh 30.22 in1023.4 mb 0.00 in0.0 mm 0.00 in/hr0.0 mm/hr 0.00 in0.0 mm
11:20 AM 56.9°F13.8°C 27.0°F-2.8°C 34% 5.1 mph WNW8.2 kmh WNW 15.7 mph25.3 kmh 30.22 in1023.4 mb 0.00 in0.0 mm 0.00 in/hr0.0 mm/hr 0.00 in0.0 mm
11:05 AM 55.8°F13.2°C 25.3°F-3.7°C 33% 3.6 mph WSW5.8 kmh WSW 14.1 mph22.7 kmh 30.22 in1023.4 mb 0.00 in0.0 mm 0.00 in/hr0.0 mm/hr 0.00 in0.0 mm
10:50 AM 54.6°F12.6°C 25.0°F-3.9°C 34% 1.8 mph W2.9 kmh W 17.4 mph28.0 kmh 30.23 in1023.7 mb 0.00 in0.0 mm 0.00 in/hr0.0 mm/hr 0.00 in0.0 mm
10:35 AM 53.7°F12.1°C 28.0°F-2.2°C 39% Calm Calm 10.5 mph16.9 kmh 30.24 in1024.0 mb 0.00 in0.0 mm 0.00 in/hr0.0 mm/hr 0.00 in0.0 mm
10:20 AM 52.1°F11.2°C 26.6°F-3.0°C 39% 5.1 mph WSW8.2 kmh WSW 15.7 mph25.3 kmh 30.24 in1024.0 mb 0.00 in0.0 mm 0.00 in/hr0.0 mm/hr 0.00 in0.0 mm
10:05 AM 50.8°F10.4°C 25.4°F-3.7°C 39% 6.9 mph WNW11.1 kmh WNW 19.2 mph30.9 kmh 30.24 in1024.0 mb 0.00 in0.0 mm 0.00 in/hr0.0 mm/hr 0.00 in0.0 mm
09:50 AM 49.9°F9.9°C 27.3°F-2.6°C 43% 6.9 mph WSW11.1 kmh WSW 17.4 mph28.0 kmh 30.25 in1024.4 mb 0.00 in0.0 mm 0.00 in/hr0.0 mm/hr 0.00 in0.0 mm
09:35 AM 48.5°F9.2°C 26.6°F-3.0°C 44% 10.5 mph WNW16.9 kmh WNW 17.4 mph28.0 kmh 30.26 in1024.7 mb 0.00 in0.0 mm 0.00 in/hr0.0 mm/hr 0.00 in0.0 mm
09:20 AM 45.8°F7.7°C 27.0°F-2.8°C 49% 6.9 mph WNW11.1 kmh WNW 19.2 mph30.9 kmh 30.25 in1024.4 mb 0.00 in0.0 mm 0.00 in/hr0.0 mm/hr 0.00 in0.0 mm
09:05 AM 43.8°F6.6°C 26.8°F-2.9°C 52% 1.8 mph WNW2.9 kmh WNW 14.1 mph22.7 kmh 30.25 in1024.4 mb 0.00 in0.0 mm 0.00 in/hr0.0 mm/hr 0.00 in0.0 mm
08:50 AM 42.5°F5.8°C 27.1°F-2.7°C 55% 3.6 mph WSW5.8 kmh WSW 12.3 mph19.8 kmh 30.24 in1024.0 mb 0.00 in0.0 mm 0.00 in/hr0.0 mm/hr 0.00 in0.0 mm
08:35 AM 41.4°F5.2°C 26.5°F-3.1°C 56% 5.1 mph W8.2 kmh W 15.7 mph25.3 kmh 30.24 in1024.0 mb 0.00 in0.0 mm 0.00 in/hr0.0 mm/hr 0.00 in0.0 mm
08:20 AM 40.2°F4.6°C 26.7°F-2.9°C 59% 1.8 mph W2.9 kmh W 10.5 mph16.9 kmh 30.24 in1024.0 mb 0.00 in0.0 mm 0.00 in/hr0.0 mm/hr 0.00 in0.0 mm
08:05 AM 37.5°F3.1°C 27.0°F-2.8°C 66% Calm Calm 14.1 mph22.7 kmh 30.24 in1024.0 mb 0.00 in0.0 mm 0.00 in/hr0.0 mm/hr 0.00 in0.0 mm
07:50 AM 34.8°F1.6°C 27.6°F-2.4°C 75% Calm Calm 8.7 mph14.0 kmh 30.23 in1023.7 mb 0.00 in0.0 mm 0.00 in/hr0.0 mm/hr 0.00 in0.0 mm
07:35 AM 33.0°F0.6°C 26.9°F-2.8°C 78% Calm Calm 5.1 mph8.2 kmh 30.23 in1023.7 mb 0.00 in0.0 mm 0.00 in/hr0.0 mm/hr 0.00 in0.0 mm
07:20 AM 32.1°F0.1°C 26.0°F-3.3°C 78% Calm Calm 3.6 mph5.8 kmh 30.22 in1023.4 mb 0.00 in0.0 mm 0.00 in/hr0.0 mm/hr 0.00 in0.0 mm
07:05 AM 31.7°F-0.2°C 25.6°F-3.6°C 78% Calm Calm 3.6 mph5.8 kmh 30.22 in1023.4 mb 0.00 in0.0 mm 0.00 in/hr0.0 mm/hr 0.00 in0.0 mm
06:50 AM 31.9°F-0.1°C 25.5°F-3.6°C 77% Calm Calm 1.8 mph2.9 kmh 30.22 in1023.4 mb 0.00 in0.0 mm 0.00 in/hr0.0 mm/hr 0.00 in0.0 mm
06:35 AM 32.3°F0.2°C 25.2°F-3.8°C 75% Calm Calm 1.8 mph2.9 kmh 30.21 in1023.0 mb 0.00 in0.0 mm 0.00 in/hr0.0 mm/hr 0.00 in0.0 mm
06:20 AM 32.4°F0.2°C 25.4°F-3.7°C 75% Calm Calm 6.9 mph11.1 kmh 30.20 in1022.7 mb 0.00 in0.0 mm 0.00 in/hr0.0 mm/hr 0.00 in0.0 mm
06:05 AM 32.8°F0.4°C 25.4°F-3.7°C 74% Calm Calm 1.8 mph2.9 kmh 30.20 in1022.7 mb 0.00 in0.0 mm 0.00 in/hr0.0 mm/hr 0.00 in0.0 mm
05:50 AM 32.8°F0.4°C 25.1°F-3.8°C 73% Calm Calm 5.1 mph8.2 kmh 30.20 in1022.7 mb 0.00 in0.0 mm 0.00 in/hr0.0 mm/hr 0.00 in0.0 mm
05:35 AM 33.0°F0.6°C 24.9°F-3.9°C 72% Calm Calm 6.9 mph11.1 kmh 30.20 in1022.7 mb 0.00 in0.0 mm 0.00 in/hr0.0 mm/hr 0.00 in0.0 mm
05:20 AM 33.5°F0.8°C 24.7°F-4.1°C 70% Calm Calm 3.6 mph5.8 kmh 30.20 in1022.7 mb 0.00 in0.0 mm 0.00 in/hr0.0 mm/hr 0.00 in0.0 mm
05:05 AM 34.1°F1.2°C 24.5°F-4.2°C 68% Calm Calm 5.1 mph8.2 kmh 30.20 in1022.7 mb 0.00 in0.0 mm 0.00 in/hr0.0 mm/hr 0.00 in0.0 mm
04:50 AM 34.6°F1.4°C 24.3°F-4.3°C 66% Calm Calm 8.7 mph14.0 kmh 30.21 in1023.0 mb 0.00 in0.0 mm 0.00 in/hr0.0 mm/hr 0.00 in0.0 mm
04:35 AM 34.4°F1.3°C 24.5°F-4.2°C 67% 3.6 mph NW5.8 kmh NW 10.5 mph16.9 kmh 30.21 in1023.0 mb 0.00 in0.0 mm 0.00 in/hr0.0 mm/hr 0.00 in0.0 mm
04:20 AM 34.4°F1.3°C 24.9°F-3.9°C 68% 1.8 mph WSW2.9 kmh WSW 8.7 mph14.0 kmh 30.21 in1023.0 mb 0.00 in0.0 mm 0.00 in/hr0.0 mm/hr 0.00 in0.0 mm
04:05 AM 34.4°F1.3°C 24.9°F-3.9°C 68% 1.8 mph WSW2.9 kmh WSW 6.9 mph11.1 kmh 30.22 in1023.4 mb 0.00 in0.0 mm 0.00 in/hr0.0 mm/hr 0.00 in0.0 mm
03:50 AM 34.6°F1.4°C 25.0°F-3.9°C 68% Calm Calm 10.5 mph16.9 kmh 30.22 in1023.4 mb 0.00 in0.0 mm 0.00 in/hr0.0 mm/hr 0.00 in0.0 mm
03:35 AM 35.0°F1.7°C 25.7°F-3.5°C 69% Calm Calm 6.9 mph11.1 kmh 30.23 in1023.7 mb 0.00 in0.0 mm 0.00 in/hr0.0 mm/hr 0.00 in0.0 mm
03:16 AM 34.6°F1.4°C 26.1°F-3.3°C 71% 3.6 mph WNW5.8 kmh WNW 10.5 mph16.9 kmh 30.23 in1023.7 mb 0.00 in0.0 mm 0.00 in/hr0.0 mm/hr 0.00 in0.0 mm
03:01 AM 34.4°F1.3°C 27.6°F-2.4°C 76% Calm Calm 5.1 mph8.2 kmh 30.22 in1023.4 mb 0.00 in0.0 mm 0.00 in/hr0.0 mm/hr 0.00 in0.0 mm
02:46 AM 34.4°F1.3°C 27.9°F-2.3°C 77% Calm Calm 12.3 mph19.8 kmh 30.22 in1023.4 mb 0.00 in0.0 mm 0.00 in/hr0.0 mm/hr 0.00 in0.0 mm
02:31 AM 33.3°F0.7°C 29.3°F-1.5°C 85% Calm Calm 8.7 mph14.0 kmh 30.22 in1023.4 mb 0.00 in0.0 mm 0.00 in/hr0.0 mm/hr 0.00 in0.0 mm
02:16 AM 33.0°F0.6°C 30.1°F-1.1°C 89% Calm Calm 5.1 mph8.2 kmh 30.23 in1023.7 mb 0.00 in0.0 mm 0.00 in/hr0.0 mm/hr 0.00 in0.0 mm
02:01 AM 33.0°F0.6°C 30.1°F-1.1°C 89% Calm Calm 1.8 mph2.9 kmh 30.24 in1024.0 mb 0.00 in0.0 mm 0.00 in/hr0.0 mm/hr 0.00 in0.0 mm
01:46 AM 33.2°F0.7°C 30.0°F-1.1°C 88% Calm Calm 1.8 mph2.9 kmh 30.23 in1023.7 mb 0.00 in0.0 mm 0.00 in/hr0.0 mm/hr 0.00 in0.0 mm
01:31 AM 33.5°F0.8°C 30.6°F-0.8°C 89% Calm Calm 1.8 mph2.9 kmh 30.23 in1023.7 mb 0.00 in0.0 mm 0.00 in/hr0.0 mm/hr 0.00 in0.0 mm
01:16 AM 33.7°F0.9°C 30.8°F-0.7°C 89% Calm Calm 3.6 mph5.8 kmh 30.24 in1024.0 mb 0.00 in0.0 mm 0.00 in/hr0.0 mm/hr 0.00 in0.0 mm
01:01 AM 33.9°F1.1°C 31.3°F-0.4°C 90% Calm Calm 5.1 mph8.2 kmh 30.24 in1024.0 mb 0.00 in0.0 mm 0.00 in/hr0.0 mm/hr 0.00 in0.0 mm
12:46 AM 33.7°F0.9°C 30.8°F-0.7°C 89% Calm Calm 3.6 mph5.8 kmh 30.24 in1024.0 mb 0.00 in0.0 mm 0.00 in/hr0.0 mm/hr 0.00 in0.0 mm
12:31 AM 33.5°F0.8°C 30.1°F-1.1°C 87% Calm Calm 1.8 mph2.9 kmh 30.24 in1024.0 mb 0.00 in0.0 mm 0.00 in/hr0.0 mm/hr 0.00 in0.0 mm
12:16 AM 33.5°F0.8°C 29.8°F-1.2°C 86% Calm Calm 3.6 mph5.8 kmh 30.24 in1024.0 mb 0.00 in0.0 mm 0.00 in/hr0.0 mm/hr 0.00 in0.0 mm
12:01 AM 33.7°F0.9°C 30.0°F-1.1°C 86% Calm Calm 3.6 mph5.8 kmh 30.26 in1024.7 mb 0.00 in0.0 mm 0.00 in/hr0.0 mm/hr 0.00 in0.0 mm